createdAt,value
2022-09-02T00:02:10.014Z,11.60
2022-09-02T00:04:39.839Z,11.50
2022-09-02T00:07:09.310Z,11.50
2022-09-02T00:09:41.086Z,11.50
2022-09-02T00:12:11.187Z,11.50
2022-09-02T00:14:40.647Z,11.40
2022-09-02T00:17:09.959Z,11.40
2022-09-02T00:19:39.379Z,11.40
2022-09-02T00:22:08.294Z,11.30
2022-09-02T00:24:38.897Z,11.30
2022-09-02T00:27:08.687Z,11.30
2022-09-02T00:29:39.083Z,11.30
2022-09-02T00:32:08.599Z,11.30
2022-09-02T00:34:39.386Z,11.30
2022-09-02T00:37:08.818Z,11.40
2022-09-02T00:39:39.448Z,11.40
2022-09-02T00:42:09.366Z,11.40
2022-09-02T00:44:38.542Z,11.40
2022-09-02T00:47:08.054Z,11.40
2022-09-02T00:49:43.587Z,11.30
2022-09-02T00:52:17.259Z,11.30
2022-09-02T00:54:52.786Z,11.30
2022-09-02T00:57:27.134Z,11.30
2022-09-02T01:00:03.243Z,11.30
2022-09-02T01:02:33.369Z,11.20
2022-09-02T01:05:04.180Z,11.20
2022-09-02T01:07:35.729Z,11.20
2022-09-02T01:10:18.065Z,11.20
2022-09-02T01:12:48.281Z,11.20
2022-09-02T01:15:21.166Z,11.10
2022-09-02T01:17:53.072Z,11.10
2022-09-02T01:20:38.612Z,11.10
2022-09-02T01:23:16.153Z,11.10
2022-09-02T01:25:46.977Z,11.10
2022-09-02T01:28:19.141Z,11.20
2022-09-02T01:30:53.399Z,11.10
2022-09-02T01:33:25.234Z,11.20
2022-09-02T01:35:57.280Z,11.10
2022-09-02T01:38:29.872Z,11.20
2022-09-02T01:40:59.622Z,11.20
2022-09-02T01:43:31.293Z,11.20
2022-09-02T01:46:03.624Z,11.30
2022-09-02T01:48:34.376Z,11.40
2022-09-02T01:51:05.880Z,11.40
2022-09-02T01:53:36.751Z,11.40
2022-09-02T01:56:09.476Z,11.40
2022-09-02T01:58:39.691Z,11.50
2022-09-02T02:01:09.642Z,11.70
2022-09-02T02:03:41.394Z,11.70
2022-09-02T02:06:14.231Z,11.70
2022-09-02T02:08:50.944Z,11.70
2022-09-02T02:11:22.242Z,11.80
2022-09-02T02:13:59.468Z,11.70
2022-09-02T02:16:29.149Z,11.50
2022-09-02T02:18:58.408Z,11.50
2022-09-02T02:21:27.923Z,11.40
2022-09-02T02:24:01.932Z,11.40
2022-09-02T02:26:33.132Z,11.30
2022-09-02T02:29:03.919Z,11.30
2022-09-02T02:31:37.179Z,11.30
2022-09-02T02:34:09.068Z,11.20
2022-09-02T02:36:38.695Z,11.20
2022-09-02T02:39:10.859Z,11.20
2022-09-02T02:41:44.746Z,11.10
2022-09-02T02:44:16.168Z,11.10
2022-09-02T02:46:47.494Z,11.10
2022-09-02T02:49:18.731Z,11.00
2022-09-02T02:51:48.595Z,11.00
2022-09-02T02:54:20.027Z,11.00
2022-09-02T02:56:50.677Z,10.90
2022-09-02T02:59:20.240Z,11.00
2022-09-02T03:01:50.769Z,11.00
2022-09-02T03:04:20.787Z,11.00
2022-09-02T03:06:52.506Z,10.90
2022-09-02T03:09:23.839Z,10.90
2022-09-02T03:11:55.308Z,10.90
2022-09-02T03:14:26.836Z,10.90
2022-09-02T03:16:58.458Z,10.90
2022-09-02T03:19:28.438Z,10.90
2022-09-02T03:21:57.795Z,10.90
2022-09-02T03:24:29.814Z,10.80
2022-09-02T03:26:59.790Z,10.90
2022-09-02T03:29:30.338Z,10.90
2022-09-02T03:32:01.246Z,10.90
2022-09-02T03:34:34.206Z,11.00
2022-09-02T03:37:07.033Z,10.90
2022-09-02T03:39:38.694Z,10.90
2022-09-02T03:42:11.217Z,11.00
2022-09-02T03:44:51.498Z,11.00
2022-09-02T03:47:24.782Z,11.00
2022-09-02T03:49:55.920Z,11.00
2022-09-02T03:52:26.206Z,11.00
2022-09-02T03:55:00.795Z,11.00
2022-09-02T03:57:32.661Z,11.00
2022-09-02T04:00:06.713Z,10.90
2022-09-02T04:02:57.778Z,10.90
2022-09-02T04:05:27.385Z,10.90
2022-09-02T04:07:59.566Z,11.00
2022-09-02T04:10:31.213Z,10.90
2022-09-02T04:13:05.009Z,10.90
2022-09-02T04:15:35.028Z,10.90
2022-09-02T04:18:05.910Z,10.90
2022-09-02T04:20:35.330Z,10.90
2022-09-02T04:23:09.341Z,10.80
2022-09-02T04:25:44.102Z,10.80
2022-09-02T04:28:15.542Z,10.80
2022-09-02T04:30:45.478Z,10.80
2022-09-02T04:33:16.774Z,10.80
2022-09-02T04:35:49.912Z,10.80
2022-09-02T04:38:20.544Z,10.80
2022-09-02T04:40:54.417Z,10.80
2022-09-02T04:43:25.700Z,10.70
2022-09-02T04:45:55.213Z,10.70
2022-09-02T04:48:27.312Z,10.60
2022-09-02T04:50:56.789Z,10.60
2022-09-02T04:53:26.345Z,10.50
2022-09-02T04:55:58.197Z,10.40
2022-09-02T04:58:29.320Z,10.40
2022-09-02T05:01:01.040Z,10.40
2022-09-02T05:03:32.672Z,10.40
2022-09-02T05:06:05.604Z,10.50
2022-09-02T05:08:37.008Z,10.60
2022-09-02T05:11:09.524Z,10.70
2022-09-02T05:13:40.942Z,10.90
2022-09-02T05:16:11.637Z,11.10
2022-09-02T05:18:41.312Z,11.40
2022-09-02T05:21:11.815Z,11.70
2022-09-02T05:23:42.500Z,11.90
2022-09-02T05:26:15.696Z,12.20
2022-09-02T05:28:45.204Z,12.30
2022-09-02T05:31:17.818Z,12.60
2022-09-02T05:33:47.580Z,12.90
2022-09-02T05:36:23.348Z,13.10
2022-09-02T05:38:58.047Z,13.30
2022-09-02T05:41:30.099Z,13.50
2022-09-02T05:44:05.466Z,13.70
2022-09-02T05:46:36.780Z,13.70
2022-09-02T05:49:23.775Z,13.90
2022-09-02T05:52:00.501Z,14.00
2022-09-02T05:54:39.446Z,14.00
2022-09-02T05:57:15.438Z,14.10
2022-09-02T05:59:59.917Z,14.30
2022-09-02T06:02:46.206Z,14.20
2022-09-02T06:05:37.677Z,14.40
2022-09-02T06:08:17.523Z,14.40
2022-09-02T06:10:49.346Z,14.40
2022-09-02T06:13:24.769Z,14.40
2022-09-02T06:15:58.474Z,14.60
2022-09-02T06:18:34.263Z,14.60
2022-09-02T06:21:07.853Z,14.70
2022-09-02T06:23:45.322Z,14.80
2022-09-02T06:26:17.389Z,14.70
2022-09-02T06:28:49.665Z,14.70
2022-09-02T06:31:24.431Z,14.70
2022-09-02T06:33:59.298Z,14.80
2022-09-02T06:36:35.166Z,14.80
2022-09-02T06:39:06.070Z,14.90
2022-09-02T06:41:37.778Z,15.00
2022-09-02T06:44:15.217Z,14.90
2022-09-02T06:46:48.613Z,15.10
2022-09-02T06:49:21.434Z,15.30
2022-09-02T06:51:57.003Z,15.20
2022-09-02T06:54:34.893Z,15.30
2022-09-02T06:57:12.669Z,15.40
2022-09-02T06:59:44.724Z,15.50
2022-09-02T07:02:18.988Z,15.60
2022-09-02T07:05:07.152Z,15.50
2022-09-02T07:07:37.514Z,15.40
2022-09-02T07:10:13.852Z,15.70
2022-09-02T07:12:52.221Z,15.80
2022-09-02T07:15:24.370Z,16.00
2022-09-02T07:17:54.853Z,16.20
2022-09-02T07:20:32.354Z,16.30
2022-09-02T07:23:05.443Z,16.40
2022-09-02T07:25:39.800Z,16.40
2022-09-02T07:28:11.224Z,16.50
2022-09-02T07:30:43.155Z,16.70
2022-09-02T07:33:19.992Z,17.10
2022-09-02T07:35:49.848Z,17.40
2022-09-02T07:38:25.401Z,17.10
2022-09-02T07:40:56.911Z,17.30
2022-09-02T07:43:31.535Z,17.50
2022-09-02T07:46:03.986Z,17.50
2022-09-02T07:48:35.555Z,17.60
2022-09-02T07:51:06.214Z,17.70
2022-09-02T07:53:37.904Z,18.00
2022-09-02T07:56:08.119Z,18.30
2022-09-02T07:58:38.367Z,18.40
2022-09-02T08:01:11.091Z,18.60
2022-09-02T08:03:43.467Z,18.50
2022-09-02T08:06:15.647Z,19.00
2022-09-02T08:08:45.644Z,19.10
2022-09-02T08:11:15.034Z,19.20
2022-09-02T08:13:48.174Z,19.20
2022-09-02T08:16:21.989Z,19.10
2022-09-02T08:18:51.799Z,19.10
2022-09-02T08:21:22.158Z,19.10
2022-09-02T08:23:52.213Z,19.60
2022-09-02T08:26:21.934Z,19.90
2022-09-02T08:28:55.582Z,20.00
2022-09-02T08:31:26.653Z,20.50
2022-09-02T08:33:58.050Z,20.70
2022-09-02T08:36:28.523Z,20.80
2022-09-02T08:38:57.791Z,20.90
2022-09-02T08:41:31.118Z,20.70
2022-09-02T08:44:02.689Z,20.60
2022-09-02T08:46:36.562Z,20.90
2022-09-02T08:49:10.919Z,21.40
2022-09-02T08:51:53.360Z,21.50
2022-09-02T08:54:31.159Z,21.40
2022-09-02T08:57:01.229Z,21.80
2022-09-02T08:59:34.033Z,22.00
2022-09-02T09:02:10.391Z,22.50
2022-09-02T09:05:00.082Z,23.00
2022-09-02T09:07:37.863Z,23.30
2022-09-02T09:10:15.448Z,23.50
2022-09-02T09:12:59.546Z,24.80
2022-09-02T09:15:39.049Z,24.90
2022-09-02T09:18:21.712Z,25.80
2022-09-02T09:20:52.245Z,25.90
2022-09-02T09:23:33.992Z,26.50
2022-09-02T09:26:12.499Z,27.20
2022-09-02T09:28:44.096Z,26.80
2022-09-02T09:31:16.081Z,26.80
2022-09-02T09:34:02.785Z,26.80
2022-09-02T09:36:48.533Z,26.60
2022-09-02T09:39:25.341Z,27.60
2022-09-02T09:41:56.928Z,28.30
2022-09-02T09:44:46.725Z,29.30
2022-09-02T09:47:23.304Z,27.60
2022-09-02T09:50:13.915Z,25.50
2022-09-02T09:52:45.859Z,24.90
2022-09-02T09:55:24.541Z,23.70
2022-09-02T09:57:55.330Z,24.40
2022-09-02T10:00:32.474Z,26.80
2022-09-02T10:03:05.360Z,25.70
2022-09-02T10:05:40.567Z,27.10
2022-09-02T10:08:23.983Z,29.10
2022-09-02T10:11:03.595Z,28.70
2022-09-02T10:13:34.566Z,27.10
2022-09-02T10:16:19.218Z,25.30
2022-09-02T10:18:53.446Z,24.20
2022-09-02T10:21:44.974Z,24.00
2022-09-02T10:24:26.551Z,24.30
2022-09-02T10:26:59.566Z,23.30
2022-09-02T10:29:44.395Z,22.90
2022-09-02T10:32:49.414Z,22.10
2022-09-02T10:35:27.128Z,22.00
2022-09-02T10:38:26.622Z,21.40
2022-09-02T10:41:08.885Z,21.50
2022-09-02T10:44:00.197Z,21.80
2022-09-02T10:46:37.255Z,22.10
2022-09-02T10:49:15.202Z,22.50
2022-09-02T10:51:50.971Z,21.90
2022-09-02T10:54:37.690Z,21.60
2022-09-02T10:57:13.707Z,21.40
2022-09-02T10:59:50.758Z,21.60
2022-09-02T11:02:27.713Z,21.50
2022-09-02T11:05:02.727Z,21.80
2022-09-02T11:07:38.717Z,21.70
2022-09-02T11:10:13.584Z,22.80
2022-09-02T11:12:53.440Z,25.20
2022-09-02T11:15:35.883Z,25.20
2022-09-02T11:20:51.250Z,25.40
2022-09-02T11:23:27.618Z,26.10
2022-09-02T11:26:01.833Z,27.00
2022-09-02T11:28:41.278Z,26.30
2022-09-02T11:31:20.909Z,27.20
2022-09-02T11:33:58.045Z,26.50
2022-09-02T11:36:33.366Z,25.20
2022-09-02T11:39:07.568Z,25.40
2022-09-02T11:41:54.923Z,27.30
2022-09-02T11:44:52.169Z,26.70
2022-09-02T11:47:57.804Z,28.80
2022-09-02T11:50:46.224Z,30.80
2022-09-02T11:53:24.027Z,30.60
2022-09-02T11:55:58.973Z,30.30
2022-09-02T11:58:41.951Z,32.70
2022-09-02T12:01:33.386Z,32.60
2022-09-02T12:07:26.914Z,28.10
2022-09-02T12:10:03.819Z,25.90
2022-09-02T12:13:08.328Z,25.20
2022-09-02T12:15:48.667Z,24.20
2022-09-02T12:18:32.516Z,23.70
2022-09-02T12:21:22.975Z,25.00
2022-09-02T12:24:21.625Z,27.80
2022-09-02T12:27:26.293Z,29.30
2022-09-02T12:29:56.928Z,28.80
2022-09-02T12:33:05.414Z,30.60
2022-09-02T12:36:00.411Z,28.30
2022-09-02T12:38:38.534Z,25.60
2022-09-02T12:41:24.843Z,24.40
2022-09-02T12:44:19.733Z,23.50
2022-09-02T12:47:14.103Z,22.70
2022-09-02T12:49:52.634Z,22.10
2022-09-02T12:52:43.823Z,22.00
2022-09-02T12:55:22.400Z,21.90
2022-09-02T12:57:57.462Z,22.20
2022-09-02T13:00:38.088Z,23.20
2022-09-02T13:03:33.631Z,24.80
2022-09-02T13:06:09.703Z,26.50
2022-09-02T13:09:16.243Z,29.30
2022-09-02T13:12:22.722Z,30.10
2022-09-02T13:15:13.286Z,32.70
2022-09-02T13:18:18.554Z,31.90
2022-09-02T13:21:06.834Z,29.90
2022-09-02T13:24:19.750Z,27.70
2022-09-02T13:27:21.934Z,25.10
2022-09-02T13:30:12.310Z,23.80
2022-09-02T13:32:42.983Z,23.10
2022-09-02T13:35:24.048Z,23.00
2022-09-02T13:38:00.718Z,22.50
2022-09-02T13:40:33.865Z,22.30
2022-09-02T13:43:07.065Z,22.20
2022-09-02T13:45:38.089Z,22.10
2022-09-02T13:48:11.667Z,22.20
2022-09-02T13:50:47.337Z,22.40
2022-09-02T13:53:53.582Z,22.40
2022-09-02T13:56:18.282Z,22.40
2022-09-02T13:58:56.741Z,22.50
2022-09-02T14:01:30.979Z,21.90
2022-09-02T14:04:05.855Z,21.40
2022-09-02T14:06:42.145Z,21.30
2022-09-02T14:09:22.829Z,21.30
2022-09-02T14:11:53.569Z,21.10
2022-09-02T14:14:27.309Z,21.00
2022-09-02T14:17:21.991Z,21.10
2022-09-02T14:19:53.348Z,21.80
2022-09-02T14:22:31.366Z,24.80
2022-09-02T14:25:04.224Z,26.40
2022-09-02T14:27:33.561Z,25.70
2022-09-02T14:30:09.732Z,24.70
2022-09-02T14:32:39.509Z,23.70
2022-09-02T14:35:29.448Z,22.60
2022-09-02T14:38:01.028Z,21.80
2022-09-02T14:40:35.868Z,21.30
2022-09-02T14:43:13.029Z,21.20
2022-09-02T14:45:49.346Z,20.90
2022-09-02T14:48:24.197Z,20.20
2022-09-02T14:51:03.959Z,20.10
2022-09-02T14:53:37.388Z,20.30
2022-09-02T14:56:08.448Z,20.00
2022-09-02T14:58:38.696Z,20.10
2022-09-02T15:01:11.343Z,20.20
2022-09-02T15:03:42.968Z,20.20
2022-09-02T15:06:15.259Z,20.10
2022-09-02T15:08:45.067Z,20.30
2022-09-02T15:11:23.271Z,20.70
2022-09-02T15:13:53.036Z,20.80
2022-09-02T15:16:23.891Z,20.70
2022-09-02T15:18:53.630Z,20.90
2022-09-02T15:21:22.795Z,20.60
2022-09-02T15:23:52.223Z,20.70
2022-09-02T15:26:23.116Z,20.60
2022-09-02T15:28:53.500Z,20.40
2022-09-02T15:31:28.957Z,20.30
2022-09-02T15:34:00.367Z,20.10
2022-09-02T15:36:32.015Z,19.90
2022-09-02T15:39:02.127Z,19.90
2022-09-02T15:41:32.383Z,19.80
2022-09-02T15:44:03.490Z,19.90
2022-09-02T15:46:37.468Z,20.00
2022-09-02T15:49:10.412Z,20.00
2022-09-02T15:51:41.947Z,20.10
2022-09-02T15:54:16.344Z,20.20
2022-09-02T15:56:50.230Z,20.20
2022-09-02T15:59:22.590Z,20.10
2022-09-02T16:01:56.787Z,20.10
2022-09-02T16:04:27.718Z,19.90
2022-09-02T16:06:59.219Z,20.00
2022-09-02T16:09:28.391Z,19.90
2022-09-02T16:11:57.970Z,19.80
2022-09-02T16:14:31.683Z,19.50
2022-09-02T16:17:02.863Z,19.40
2022-09-02T16:19:32.008Z,19.20
2022-09-02T16:22:01.492Z,19.10
2022-09-02T16:24:31.251Z,19.10
2022-09-02T16:27:01.027Z,18.90
2022-09-02T16:29:31.269Z,18.70
2022-09-02T16:34:57.623Z,18.60
2022-09-02T16:37:27.542Z,18.60
2022-09-02T16:39:56.876Z,18.40
2022-09-02T16:42:28.050Z,18.30
2022-09-02T16:44:59.333Z,18.20
2022-09-02T16:47:32.747Z,18.10
2022-09-02T16:50:03.943Z,17.90
2022-09-02T16:52:36.034Z,17.80
2022-09-02T16:55:05.786Z,17.80
2022-09-02T16:57:35.457Z,17.70
2022-09-02T17:00:11.178Z,17.50
2022-09-02T17:02:53.876Z,17.40
2022-09-02T17:05:25.573Z,17.30
2022-09-02T17:07:56.234Z,17.20
2022-09-02T17:10:25.752Z,17.10
2022-09-02T17:13:04.697Z,17.00
2022-09-02T17:15:46.002Z,16.90
2022-09-02T17:18:20.355Z,16.80
2022-09-02T17:20:50.639Z,16.70
2022-09-02T17:23:20.596Z,16.50
2022-09-02T17:25:51.959Z,16.50
2022-09-02T17:28:21.754Z,16.40
2022-09-02T17:30:51.447Z,16.30
2022-09-02T17:33:24.435Z,16.20
2022-09-02T17:35:58.552Z,16.10
2022-09-02T17:38:28.458Z,16.00
2022-09-02T17:41:15.133Z,15.80
2022-09-02T17:43:45.405Z,15.80
2022-09-02T17:46:14.913Z,15.70
2022-09-02T17:49:12.883Z,15.60
2022-09-02T17:51:36.364Z,15.50
2022-09-02T17:54:06.436Z,15.40
2022-09-02T17:57:13.437Z,15.20
2022-09-02T18:00:02.663Z,15.10
2022-09-02T18:03:25.588Z,14.90
2022-09-02T18:06:18.580Z,14.80
2022-09-02T18:08:56.799Z,14.80
2022-09-02T18:11:33.397Z,14.80
2022-09-02T18:14:20.299Z,14.70
2022-09-02T18:16:59.677Z,14.70
2022-09-02T18:19:47.564Z,14.70
2022-09-02T18:22:38.218Z,14.60
2022-09-02T18:25:25.348Z,14.50
2022-09-02T18:28:03.786Z,14.30
2022-09-02T18:30:41.757Z,14.20
2022-09-02T18:33:30.489Z,14.20
2022-09-02T18:36:09.841Z,14.00
2022-09-02T18:38:50.527Z,14.00
2022-09-02T18:41:38.884Z,14.10
2022-09-02T18:44:24.415Z,14.10
2022-09-02T18:46:58.743Z,14.20
2022-09-02T18:49:33.169Z,14.20
2022-09-02T18:52:08.827Z,14.20
2022-09-02T18:54:48.651Z,14.20
2022-09-02T18:57:18.920Z,14.10
2022-09-02T18:59:55.656Z,14.00
2022-09-02T19:02:33.699Z,13.70
2022-09-02T19:05:08.462Z,13.90
2022-09-02T19:08:04.030Z,13.80
2022-09-02T19:10:35.947Z,13.80
2022-09-02T19:13:09.115Z,13.70
2022-09-02T19:15:41.271Z,13.60
2022-09-02T19:18:11.706Z,13.60
2022-09-02T19:20:42.428Z,13.50
2022-09-02T19:23:15.913Z,13.40
2022-09-02T19:25:48.281Z,13.30
2022-09-02T19:28:19.501Z,13.30
2022-09-02T19:30:51.447Z,13.20
2022-09-02T19:33:25.519Z,13.10
2022-09-02T19:35:59.943Z,13.00
2022-09-02T19:38:32.836Z,12.90
2022-09-02T19:41:06.452Z,12.70
2022-09-02T19:43:44.004Z,12.70
2022-09-02T19:46:43.967Z,12.70
2022-09-02T19:49:06.618Z,12.70
2022-09-02T19:51:37.383Z,12.80
2022-09-02T19:54:09.258Z,12.70
2022-09-02T19:56:45.359Z,12.60
2022-09-02T19:59:15.605Z,12.50
2022-09-02T20:01:44.830Z,12.60
2022-09-02T20:04:14.755Z,12.60
2022-09-02T20:06:44.558Z,12.70
2022-09-02T20:09:14.462Z,12.70
2022-09-02T20:11:48.870Z,12.80
2022-09-02T20:14:21.197Z,12.80
2022-09-02T20:16:58.249Z,12.90
2022-09-02T20:19:28.805Z,13.00
2022-09-02T20:22:01.714Z,13.10
2022-09-02T20:24:33.641Z,13.20
2022-09-02T20:27:14.603Z,13.30
2022-09-02T20:29:59.405Z,13.30
2022-09-02T20:32:40.809Z,13.40
2022-09-02T20:35:24.290Z,13.50
2022-09-02T20:38:01.053Z,13.50
2022-09-02T20:40:38.355Z,13.60
2022-09-02T20:43:28.472Z,13.70
2022-09-02T20:46:03.885Z,13.60
2022-09-02T20:48:54.853Z,13.70
2022-09-02T20:51:31.022Z,13.70
2022-09-02T20:54:14.580Z,13.60
2022-09-02T20:56:58.981Z,13.70
2022-09-02T20:59:41.100Z,13.80
2022-09-02T21:02:13.561Z,13.80
2022-09-02T21:04:48.022Z,13.70
2022-09-02T21:07:23.200Z,13.70
2022-09-02T21:09:58.184Z,13.70
2022-09-02T21:12:38.882Z,13.70
2022-09-02T21:15:20.601Z,13.70
2022-09-02T21:17:54.929Z,13.70
2022-09-02T21:20:32.772Z,13.60
2022-09-02T21:23:07.731Z,13.60
2022-09-02T21:25:44.923Z,13.60
2022-09-02T21:28:19.315Z,13.50
2022-09-02T21:30:57.151Z,13.50
2022-09-02T21:33:31.067Z,13.50
2022-09-02T21:36:02.417Z,13.50
2022-09-02T21:38:37.829Z,13.50
2022-09-02T21:41:23.327Z,13.40
2022-09-02T21:44:01.457Z,13.40
2022-09-02T21:46:44.126Z,13.40
2022-09-02T21:49:27.824Z,13.30
2022-09-02T21:52:07.255Z,13.30
2022-09-02T21:54:50.690Z,13.30
2022-09-02T21:57:43.755Z,13.30
2022-09-02T22:00:16.603Z,13.20
2022-09-02T22:02:59.086Z,13.30
2022-09-02T22:05:41.264Z,13.30
2022-09-02T22:08:19.253Z,13.20
2022-09-02T22:11:01.347Z,13.20
2022-09-02T22:13:33.241Z,13.20
2022-09-02T22:16:16.410Z,13.20
2022-09-02T22:19:00.537Z,13.10
2022-09-02T22:21:38.651Z,13.10
2022-09-02T22:24:08.904Z,13.20
2022-09-02T22:26:42.448Z,13.10
2022-09-02T22:29:21.794Z,13.10
2022-09-02T22:31:57.978Z,13.00
2022-09-02T22:34:32.039Z,12.90
2022-09-02T22:37:09.026Z,12.90
2022-09-02T22:39:45.107Z,12.80
2022-09-02T22:42:22.950Z,12.70
2022-09-02T22:45:19.212Z,12.60
2022-09-02T22:48:10.843Z,12.60
2022-09-02T22:51:06.970Z,12.50
2022-09-02T22:53:36.622Z,12.50
2022-09-02T22:56:09.803Z,12.50
2022-09-02T22:58:58.906Z,12.50
2022-09-02T23:01:36.732Z,12.50
2022-09-02T23:04:21.808Z,12.50
2022-09-02T23:06:59.570Z,12.40
2022-09-02T23:09:29.335Z,12.40
2022-09-02T23:12:10.596Z,12.40
2022-09-02T23:14:48.763Z,12.30
2022-09-02T23:17:34.513Z,12.30
2022-09-02T23:20:20.383Z,12.20
2022-09-02T23:23:09.505Z,12.20
2022-09-02T23:25:52.586Z,12.20
2022-09-02T23:28:32.783Z,12.20
2022-09-02T23:31:11.248Z,12.10
2022-09-02T23:33:57.637Z,12.10
2022-09-02T23:36:36.590Z,12.10
2022-09-02T23:39:23.436Z,12.10
2022-09-02T23:41:54.636Z,12.00
2022-09-02T23:44:24.005Z,12.00
2022-09-02T23:47:05.485Z,11.90
2022-09-02T23:49:41.424Z,11.80
2022-09-02T23:52:24.414Z,11.80
2022-09-02T23:55:06.681Z,11.80
2022-09-02T23:57:54.912Z,11.70
